Time;durP1;ratioP1;P1;durP2;ratioP2;P2;SDS_P1;SDS_P2;PMS_P1;PMS_P2;Temp;Humidity;BMP_temperature;BMP_pressure;BME280_temperature;BME280_humidity;BME280_pressure;Samples;Min_cycle;Max_cycle;Signal;HPM_P1;HPM_P2
2021/12/28 00:00:20;;;;;;;6.60;1.50;;;10.00;98.40;;;;;;10162589;28;20310;-73
2021/12/28 00:05:12;;;;;;;8.00;2.15;;;9.90;98.30;;;;;;10156968;28;20031;-72
2021/12/28 00:10:05;;;;;;;6.13;1.98;;;9.80;98.30;;;;;;10145183;28;20108;-72
2021/12/28 00:15:17;;;;;;;5.25;2.15;;;9.90;98.30;;;;;;10153778;28;20045;-73
2021/12/28 00:20:08;;;;;;;3.45;1.27;;;9.80;98.30;;;;;;10116413;28;20033;-70
2021/12/28 00:24:59;;;;;;;3.67;1.95;;;9.70;98.20;;;;;;10121519;28;20032;-73
2021/12/28 00:29:49;;;;;;;5.65;1.23;;;9.80;98.30;;;;;;10110097;28;20025;-73
2021/12/28 00:34:41;;;;;;;3.83;1.85;;;9.80;98.30;;;;;;10114315;28;20060;-69
2021/12/28 00:39:32;;;;;;;5.45;1.60;;;9.80;98.30;;;;;;10129502;28;20033;-72
2021/12/28 00:44:22;;;;;;;4.90;1.42;;;9.80;98.10;;;;;;10117764;28;20025;-69
2021/12/28 00:49:13;;;;;;;5.53;2.65;;;9.80;98.10;;;;;;10128360;28;20036;-71
2021/12/28 00:54:04;;;;;;;6.45;1.17;;;9.80;98.10;;;;;;10127320;28;20021;-72
2021/12/28 00:58:55;;;;;;;8.70;1.45;;;9.80;98.10;;;;;;10090564;28;20076;-70
2021/12/28 01:03:46;;;;;;;2.70;0.68;;;9.80;98.00;;;;;;10118221;28;20066;-71
2021/12/28 01:08:37;;;;;;;3.55;0.82;;;9.80;98.00;;;;;;10097043;28;20106;-70
2021/12/28 01:13:28;;;;;;;6.82;1.02;;;9.80;98.00;;;;;;10099365;28;20028;-71
2021/12/28 01:18:20;;;;;;;2.28;0.63;;;9.90;98.00;;;;;;10131228;28;20068;-71
2021/12/28 01:23:12;;;;;;;7.22;1.92;;;9.80;98.00;;;;;;10129359;28;20515;-70
2021/12/28 01:28:04;;;;;;;6.90;1.20;;;9.80;97.90;;;;;;10123552;28;20162;-68
2021/12/28 01:32:58;;;;;;;4.30;1.05;;;9.90;97.90;;;;;;10122869;28;20025;-71
2021/12/28 01:37:49;;;;;;;7.53;2.05;;;9.90;97.80;;;;;;10115948;28;20044;-71
2021/12/28 01:43:03;;;;;;;4.68;1.17;;;9.80;97.80;;;;;;10115715;28;20502;-71
2021/12/28 01:47:54;;;;;;;3.20;1.05;;;9.90;97.80;;;;;;10122877;28;20055;-69
2021/12/28 01:52:44;;;;;;;5.30;1.20;;;9.80;97.60;;;;;;10113594;28;20036;-69
2021/12/28 01:57:35;;;;;;;5.13;2.25;;;9.90;97.60;;;;;;10114294;28;20050;-68
2021/12/28 02:02:26;;;;;;;3.90;1.20;;;9.90;97.60;;;;;;10110679;28;20508;-69
2021/12/28 02:07:16;;;;;;;6.90;2.08;;;9.90;97.50;;;;;;10114402;28;20056;-69
2021/12/28 02:12:08;;;;;;;5.75;1.30;;;9.90;97.40;;;;;;10113585;28;20047;-68
2021/12/28 02:16:58;;;;;;;9.65;2.03;;;10.00;97.40;;;;;;10119747;28;20255;-68
2021/12/28 02:21:49;;;;;;;3.83;1.52;;;10.00;97.40;;;;;;10106204;28;20334;-67
2021/12/28 02:26:40;;;;;;;6.75;1.20;;;10.00;97.30;;;;;;10112244;28;20077;-67
2021/12/28 02:31:31;;;;;;;2.83;1.63;;;10.00;97.30;;;;;;10123490;28;20099;-67
2021/12/28 02:36:21;;;;;;;3.80;1.08;;;10.00;97.20;;;;;;10122289;28;20402;-67
2021/12/28 02:41:13;;;;;;;3.05;1.00;;;10.00;97.20;;;;;;10105689;28;20037;-68
2021/12/28 02:46:06;;;;;;;1.80;1.00;;;10.00;97.10;;;;;;10119683;28;20060;-70
2021/12/28 02:51:27;;;;;;;2.92;1.40;;;10.00;97.00;;;;;;10111078;28;20283;-69
2021/12/28 02:56:19;;;;;;;2.78;0.93;;;10.00;96.90;;;;;;10088717;28;20429;-69
2021/12/28 03:01:19;;;;;;;4.40;1.20;;;9.90;97.00;;;;;;10113189;28;20331;-69
2021/12/28 03:06:12;;;;;;;2.78;0.77;;;9.90;97.00;;;;;;10122297;28;20028;-71
2021/12/28 03:11:04;;;;;;;4.13;1.13;;;9.90;97.00;;;;;;10110046;28;20020;-68
2021/12/28 03:15:55;;;;;;;1.63;0.65;;;9.90;97.00;;;;;;10093095;28;20057;-68
2021/12/28 03:20:46;;;;;;;3.38;1.00;;;9.80;96.90;;;;;;10089447;28;20029;-68
2021/12/28 03:25:37;;;;;;;1.83;1.23;;;9.80;96.90;;;;;;10114090;28;20055;-69
2021/12/28 03:30:28;;;;;;;3.90;1.60;;;9.80;96.90;;;;;;10117025;28;20066;-68
2021/12/28 03:35:19;;;;;;;2.88;2.00;;;9.80;96.90;;;;;;10106027;28;20032;-70
2021/12/28 03:40:12;;;;;;;4.25;1.58;;;9.70;96.90;;;;;;10116744;28;20048;-68
2021/12/28 03:45:05;;;;;;;2.97;1.00;;;9.80;96.90;;;;;;10112254;28;20029;-71
2021/12/28 03:49:55;;;;;;;5.40;1.15;;;9.80;96.80;;;;;;10099545;28;20036;-67
2021/12/28 03:54:46;;;;;;;5.18;2.20;;;9.80;96.80;;;;;;10109754;28;20093;-68
2021/12/28 03:59:38;;;;;;;6.82;1.95;;;9.70;96.80;;;;;;10111374;28;20101;-68
2021/12/28 04:04:30;;;;;;;2.78;0.93;;;9.80;96.70;;;;;;10109116;28;20037;-69
2021/12/28 04:09:45;;;;;;;3.47;1.77;;;9.80;96.70;;;;;;10117555;28;20021;-68
2021/12/28 04:14:31;;;;;;;1.77;0.80;;;9.90;96.70;;;;;;10119997;28;20607;-68
2021/12/28 04:19:22;;;;;;;1.23;0.50;;;9.90;96.60;;;;;;10152759;28;20166;-69
2021/12/28 04:24:13;;;;;;;0.52;0.40;;;10.00;96.50;;;;;;10160576;28;20095;-68
2021/12/28 04:29:03;;;;;;;1.88;0.68;;;10.00;96.40;;;;;;10146354;28;20516;-69
2021/12/28 04:33:54;;;;;;;2.28;0.85;;;10.20;96.30;;;;;;10146372;28;20537;-71
2021/12/28 04:38:45;;;;;;;0.52;0.30;;;10.40;96.10;;;;;;10142630;28;20196;-68
2021/12/28 04:43:37;;;;;;;2.03;0.38;;;10.40;96.10;;;;;;10148466;28;20037;-68
2021/12/28 04:48:28;;;;;;;0.90;0.50;;;10.50;96.00;;;;;;10156822;28;20102;-70
2021/12/28 04:53:19;;;;;;;1.60;0.60;;;10.60;96.00;;;;;;10160266;28;20559;-69
2021/12/28 04:58:11;;;;;;;1.00;0.40;;;10.60;95.90;;;;;;10154603;28;20050;-70
2021/12/28 05:03:03;;;;;;;1.10;0.60;;;10.60;95.80;;;;;;10149176;28;20028;-69
2021/12/28 05:07:54;;;;;;;0.93;0.35;;;10.70;95.80;;;;;;10167662;28;20040;-67
2021/12/28 05:12:46;;;;;;;1.83;0.40;;;10.70;95.70;;;;;;10149162;28;20032;-69
2021/12/28 05:17:38;;;;;;;0.57;0.20;;;10.70;95.70;;;;;;10139886;28;20055;-72
2021/12/28 05:22:29;;;;;;;0.45;0.40;;;10.70;95.60;;;;;;10118486;28;20036;-72
2021/12/28 05:27:20;;;;;;;2.58;0.52;;;10.80;95.60;;;;;;10114064;28;20025;-72
2021/12/28 05:32:11;;;;;;;2.05;0.30;;;10.80;95.50;;;;;;10116629;28;20024;-68
2021/12/28 05:37:02;;;;;;;0.15;0.10;;;10.80;95.40;;;;;;10114007;28;20017;-70
2021/12/28 05:41:53;;;;;;;2.83;0.40;;;10.70;95.40;;;;;;10094757;28;20541;-68
2021/12/28 05:46:47;;;;;;;0.85;0.17;;;10.70;95.40;;;;;;10110680;28;20259;-71
2021/12/28 05:51:38;;;;;;;0.20;0.20;;;10.70;95.40;;;;;;10118102;28;20028;-68
2021/12/28 05:56:29;;;;;;;0.60;0.20;;;10.80;95.50;;;;;;10098605;28;20036;-69
2021/12/28 06:01:20;;;;;;;0.20;0.20;;;10.70;95.30;;;;;;10097100;28;20063;-67
2021/12/28 06:06:12;;;;;;;0.45;0.45;;;10.80;95.30;;;;;;10118245;28;20032;-69
2021/12/28 06:11:03;;;;;;;1.33;0.30;;;10.80;95.30;;;;;;10122108;28;20075;-68
2021/12/28 06:15:54;;;;;;;0.93;0.17;;;10.70;95.30;;;;;;10120979;28;20055;-68
2021/12/28 06:20:45;;;;;;;2.95;0.20;;;10.60;95.50;;;;;;10120512;28;20077;-68
2021/12/28 06:25:36;;;;;;;1.17;0.43;;;10.60;95.70;;;;;;10112750;28;20021;-69
2021/12/28 06:30:27;;;;;;;0.93;0.35;;;10.50;95.70;;;;;;10110665;28;20103;-69
2021/12/28 06:35:17;;;;;;;0.10;0.10;;;10.50;95.70;;;;;;10120456;28;20028;-68
2021/12/28 06:40:09;;;;;;;0.45;0.45;;;10.50;95.80;;;;;;10118431;28;20025;-69
2021/12/28 06:45:01;;;;;;;0.30;0.17;;;10.60;95.80;;;;;;10112565;28;20219;-70
2021/12/28 06:49:52;;;;;;;0.40;0.28;;;10.60;95.70;;;;;;10107535;28;20033;-72
2021/12/28 06:54:44;;;;;;;0.32;0.10;;;10.60;95.60;;;;;;10095030;28;20128;-68
2021/12/28 06:59:43;;;;;;;0.20;0.17;;;10.60;95.60;;;;;;10118757;28;20037;-67
2021/12/28 07:04:36;;;;;;;1.73;0.50;;;10.70;95.60;;;;;;10114107;28;20028;-71
2021/12/28 07:09:27;;;;;;;0.10;0.10;;;10.70;95.60;;;;;;10110733;28;20044;-68
2021/12/28 07:14:17;;;;;;;0.40;0.20;;;10.70;95.60;;;;;;10118665;28;20021;-69
2021/12/28 07:19:10;;;;;;;1.65;0.32;;;10.70;95.70;;;;;;10156724;28;20062;-68
2021/12/28 07:24:00;;;;;;;0.10;0.10;;;10.70;95.70;;;;;;10156747;28;20028;-69
2021/12/28 07:28:53;;;;;;;0.25;0.10;;;10.70;95.70;;;;;;10162012;28;20032;-68
2021/12/28 07:33:44;;;;;;;0.10;0.10;;;10.70;95.80;;;;;;10159509;28;20039;-69
2021/12/28 07:38:34;;;;;;;0.32;0.10;;;10.70;95.90;;;;;;10155737;28;20021;-67
2021/12/28 07:43:25;;;;;;;0.30;0.20;;;10.70;95.90;;;;;;10158910;28;20162;-65
2021/12/28 07:48:16;;;;;;;0.32;0.10;;;10.70;96.00;;;;;;10154313;28;20021;-64
2021/12/28 07:53:06;;;;;;;0.38;0.20;;;10.70;96.30;;;;;;10156200;28;20414;-66
2021/12/28 07:57:57;;;;;;;0.88;0.20;;;10.70;96.10;;;;;;10159991;28;20481;-65
2021/12/28 08:02:48;;;;;;;0.17;0.13;;;10.70;96.10;;;;;;10160362;28;20036;-66
2021/12/28 08:07:39;;;;;;;0.10;0.10;;;10.70;96.20;;;;;;10155963;28;20032;-69
2021/12/28 08:12:30;;;;;;;1.02;0.10;;;10.70;96.60;;;;;;10159420;28;20089;-65
2021/12/28 08:17:20;;;;;;;0.20;0.10;;;10.70;96.30;;;;;;10136683;28;20056;-70
2021/12/28 08:22:11;;;;;;;0.20;0.17;;;10.80;96.30;;;;;;10113445;28;20044;-70
2021/12/28 08:27:02;;;;;;;0.20;0.20;;;10.80;96.40;;;;;;10117323;28;20457;-72
2021/12/28 08:31:53;;;;;;;1.67;0.52;;;10.90;96.40;;;;;;10119805;28;20490;-67
2021/12/28 08:36:44;;;;;;;1.15;0.52;;;11.00;96.40;;;;;;10118050;28;20475;-68
2021/12/28 08:41:34;;;;;;;1.13;0.30;;;11.00;96.50;;;;;;10128403;28;20036;-67
2021/12/28 08:46:25;;;;;;;0.90;0.43;;;11.00;96.50;;;;;;10130155;28;20078;-67
2021/12/28 08:51:16;;;;;;;2.45;0.57;;;11.00;96.50;;;;;;10110972;28;20029;-67
2021/12/28 08:56:08;;;;;;;1.25;0.75;;;11.10;96.50;;;;;;10103675;28;20032;-66
2021/12/28 09:00:59;;;;;;;1.60;0.30;;;11.30;96.50;;;;;;10121934;28;20260;-66
2021/12/28 09:05:49;;;;;;;0.40;0.40;;;11.30;96.50;;;;;;10125126;28;20152;-68
2021/12/28 09:10:40;;;;;;;0.80;0.60;;;11.40;96.50;;;;;;10111124;28;20341;-68
2021/12/28 09:15:31;;;;;;;2.72;0.82;;;11.60;96.50;;;;;;10125958;28;20048;-68
2021/12/28 09:20:24;;;;;;;2.15;0.70;;;11.70;96.50;;;;;;10103577;28;20032;-69
2021/12/28 09:25:18;;;;;;;0.45;0.35;;;11.80;96.40;;;;;;10109962;28;20024;-68
2021/12/28 09:30:10;;;;;;;0.70;0.45;;;11.90;96.40;;;;;;10122743;28;20025;-71
2021/12/28 09:35:00;;;;;;;0.80;0.45;;;11.80;96.50;;;;;;10123068;28;20400;-70
2021/12/28 09:39:51;;;;;;;0.85;0.50;;;11.90;96.50;;;;;;10123537;28;20047;-69
2021/12/28 09:44:42;;;;;;;1.95;0.73;;;12.00;96.40;;;;;;10124501;28;20403;-71
2021/12/28 09:49:33;;;;;;;1.30;0.63;;;12.30;96.40;;;;;;10123000;28;20028;-73
2021/12/28 09:54:26;;;;;;;0.77;0.60;;;12.40;96.30;;;;;;10124176;28;20021;-72
2021/12/28 09:59:17;;;;;;;1.35;0.90;;;12.40;96.20;;;;;;10116462;28;20131;-69
2021/12/28 10:04:08;;;;;;;0.55;0.55;;;12.40;96.20;;;;;;10117622;28;20039;-70
2021/12/28 10:09:29;;;;;;;0.85;0.55;;;12.50;96.20;;;;;;10123693;28;20084;-69
2021/12/28 10:14:28;;;;;;;0.50;0.32;;;12.70;96.30;;;;;;10116870;28;20077;-70
2021/12/28 10:19:38;;;;;;;0.68;0.47;;;12.70;96.10;;;;;;10126378;28;20070;-71
2021/12/28 10:24:34;;;;;;;0.68;0.60;;;12.80;96.10;;;;;;10127309;28;20032;-72
2021/12/28 10:29:30;;;;;;;0.80;0.40;;;12.80;96.20;;;;;;10127255;28;20133;-70
2021/12/28 10:34:20;;;;;;;0.80;0.60;;;12.70;96.20;;;;;;10130876;28;20376;-73
2021/12/28 10:39:11;;;;;;;1.17;0.77;;;12.70;96.20;;;;;;10126159;28;20032;-71
2021/12/28 10:44:02;;;;;;;0.80;0.55;;;12.70;96.10;;;;;;10108187;28;20521;-70
2021/12/28 10:48:56;;;;;;;1.25;0.60;;;12.70;96.20;;;;;;10123768;28;20025;-72
2021/12/28 10:58:49;;;;;;;1.80;0.57;;;12.60;96.30;;;;;;10116985;28;20387;-72
2021/12/28 11:03:43;;;;;;;0.60;0.50;;;12.60;96.40;;;;;;10108322;28;20071;-67
2021/12/28 11:08:35;;;;;;;1.25;0.50;;;12.60;96.40;;;;;;10117500;28;20021;-71
2021/12/28 11:13:29;;;;;;;0.82;0.63;;;12.50;96.40;;;;;;10117872;28;20075;-69
2021/12/28 11:18:30;;;;;;;0.82;0.60;;;12.60;96.40;;;;;;10141669;28;20552;-70
2021/12/28 11:23:27;;;;;;;0.80;0.60;;;12.60;96.40;;;;;;10162082;28;20069;-70
2021/12/28 11:28:21;;;;;;;1.00;0.60;;;12.60;96.30;;;;;;10155449;28;20265;-71
2021/12/28 11:33:12;;;;;;;3.50;1.23;;;12.70;96.30;;;;;;10159254;28;20017;-67
2021/12/28 11:38:03;;;;;;;1.05;0.77;;;12.70;96.20;;;;;;10155937;28;20122;-68
2021/12/28 11:42:54;;;;;;;0.73;0.50;;;12.80;96.20;;;;;;10157699;28;20123;-68
2021/12/28 11:47:45;;;;;;;1.23;0.68;;;12.80;96.10;;;;;;10157247;28;20592;-68
2021/12/28 11:52:36;;;;;;;2.40;0.80;;;12.90;96.00;;;;;;10157914;28;20270;-68
2021/12/28 11:57:31;;;;;;;2.63;0.32;;;13.10;95.90;;;;;;10159973;28;20067;-68
2021/12/28 12:02:37;;;;;;;2.57;0.63;;;13.20;95.50;;;;;;10159732;28;20487;-68
2021/12/28 12:07:37;;;;;;;2.55;0.60;;;13.30;95.20;;;;;;10163946;28;20050;-72
2021/12/28 12:12:43;;;;;;;1.20;0.60;;;13.40;94.70;;;;;;10156320;28;20077;-70
2021/12/28 12:17:34;;;;;;;1.92;0.60;;;13.40;94.80;;;;;;10136789;28;20049;-74
2021/12/28 12:22:48;;;;;;;2.80;0.82;;;13.40;94.60;;;;;;10119302;28;20139;-72
2021/12/28 12:27:52;;;;;;;2.10;0.60;;;13.40;94.50;;;;;;10112755;28;20028;-72
2021/12/28 12:33:01;;;;;;;0.90;0.60;;;13.40;94.40;;;;;;10120918;28;20037;-72
2021/12/28 12:37:52;;;;;;;1.10;0.82;;;13.30;94.40;;;;;;10117354;28;20032;-71
2021/12/28 12:42:46;;;;;;;1.40;1.05;;;13.20;94.40;;;;;;10135056;28;20045;-73
2021/12/28 12:47:37;;;;;;;1.17;0.77;;;13.20;94.40;;;;;;10113864;28;20039;-72
2021/12/28 12:52:28;;;;;;;3.42;1.42;;;13.10;94.30;;;;;;10127770;28;20606;-66
2021/12/28 12:57:31;;;;;;;3.08;0.90;;;13.10;94.30;;;;;;10129853;28;20029;-62
2021/12/28 13:02:32;;;;;;;1.10;0.50;;;13.10;94.30;;;;;;10125848;28;20082;-64
2021/12/28 13:07:26;;;;;;;1.15;0.40;;;13.10;94.20;;;;;;10120910;28;20028;-68
2021/12/28 13:12:20;;;;;;;0.93;0.57;;;13.10;94.20;;;;;;10124790;28;20029;-75
2021/12/28 13:17:18;;;;;;;1.65;0.57;;;13.20;94.20;;;;;;10122326;28;20052;-66
2021/12/28 13:22:09;;;;;;;0.38;0.38;;;13.10;94.20;;;;;;10126793;28;20044;-70
2021/12/28 13:27:04;;;;;;;0.55;0.45;;;13.20;94.10;;;;;;10130490;28;20241;-69
2021/12/28 13:32:25;;;;;;;1.25;0.50;;;13.10;94.10;;;;;;10125654;28;20039;-70
2021/12/28 13:37:31;;;;;;;1.08;0.75;;;13.00;94.20;;;;;;10125806;28;20120;-70
2021/12/28 13:42:22;;;;;;;1.33;0.85;;;13.00;94.30;;;;;;10128170;28;20037;-70
2021/12/28 13:47:14;;;;;;;3.10;1.00;;;12.90;94.40;;;;;;10127621;28;20032;-69
2021/12/28 13:52:04;;;;;;;1.95;0.60;;;12.80;94.60;;;;;;10126692;28;20028;-69
2021/12/28 13:56:57;;;;;;;1.13;0.65;;;12.80;94.70;;;;;;10124992;28;20079;-66
2021/12/28 14:01:47;;;;;;;0.52;0.30;;;12.80;94.90;;;;;;10117425;28;20150;-68
2021/12/28 14:06:43;;;;;;;1.80;0.47;;;12.60;94.90;;;;;;10103627;28;20029;-70
2021/12/28 14:11:54;;;;;;;1.75;0.40;;;12.40;95.10;;;;;;10122153;28;20638;-69
2021/12/28 14:16:57;;;;;;;2.65;1.25;;;12.20;95.40;;;;;;10122714;28;20132;-70
2021/12/28 14:21:48;;;;;;;2.53;0.80;;;12.00;95.40;;;;;;10125643;28;20043;-67
2021/12/28 14:26:43;;;;;;;1.48;0.60;;;11.70;95.60;;;;;;10119644;28;20031;-69
2021/12/28 14:31:40;;;;;;;2.13;0.70;;;11.40;95.90;;;;;;10101951;28;20048;-67
2021/12/28 14:36:36;;;;;;;1.17;0.50;;;11.00;96.40;;;;;;10125419;28;20611;-70
2021/12/28 14:41:27;;;;;;;1.83;0.63;;;10.70;96.60;;;;;;10120830;28;20072;-70
2021/12/28 14:46:29;;;;;;;1.27;0.80;;;10.60;96.60;;;;;;10104129;28;20107;-69
2021/12/28 14:51:31;;;;;;;2.63;0.63;;;10.70;96.60;;;;;;10118761;28;20032;-70
2021/12/28 14:56:30;;;;;;;2.35;1.15;;;10.80;96.50;;;;;;10123919;28;20402;-70
2021/12/28 15:01:21;;;;;;;2.15;1.00;;;11.00;96.50;;;;;;10124030;28;20041;-70
2021/12/28 15:06:15;;;;;;;3.13;0.80;;;11.10;96.30;;;;;;10123542;28;20033;-69
2021/12/28 15:11:06;;;;;;;6.13;1.65;;;11.10;96.40;;;;;;10122326;28;20051;-69
2021/12/28 15:15:58;;;;;;;1.25;0.57;;;11.20;96.50;;;;;;10103065;28;20530;-69
2021/12/28 15:20:49;;;;;;;3.00;0.68;;;11.00;96.70;;;;;;10087855;28;20040;-70
2021/12/28 15:25:41;;;;;;;3.83;1.02;;;10.70;96.90;;;;;;10120846;28;20103;-68
2021/12/28 15:30:39;;;;;;;2.25;1.25;;;10.40;97.00;;;;;;10104306;28;20049;-72
2021/12/28 15:35:37;;;;;;;3.92;0.75;;;9.60;97.40;;;;;;10122293;28;20490;-68
2021/12/28 15:40:33;;;;;;;3.50;0.70;;;9.10;97.60;;;;;;10091191;28;20127;-67
2021/12/28 15:45:25;;;;;;;2.30;0.93;;;8.70;98.20;;;;;;10115225;28;20031;-67
2021/12/28 15:50:15;;;;;;;2.55;0.80;;;8.60;98.30;;;;;;10115672;28;20037;-69
2021/12/28 15:55:07;;;;;;;4.97;0.93;;;8.40;98.40;;;;;;10120990;28;20394;-70
2021/12/28 15:59:58;;;;;;;1.17;0.30;;;8.50;98.30;;;;;;10119345;28;20403;-70
2021/12/28 16:04:49;;;;;;;2.90;0.40;;;8.50;98.10;;;;;;10120591;28;20021;-69
2021/12/28 16:09:41;;;;;;;2.22;0.20;;;8.40;98.10;;;;;;10125295;28;20409;-69
2021/12/28 16:14:32;;;;;;;0.22;0.20;;;8.30;97.80;;;;;;10120425;28;20101;-68
2021/12/28 16:19:23;;;;;;;0.80;0.32;;;8.30;97.70;;;;;;10117895;28;20045;-71
2021/12/28 16:24:14;;;;;;;0.38;0.38;;;8.40;97.50;;;;;;10120947;28;20398;-69
2021/12/28 16:29:05;;;;;;;0.88;0.55;;;8.40;97.40;;;;;;10109604;28;20024;-70
2021/12/28 16:33:56;;;;;;;0.80;0.30;;;8.50;97.40;;;;;;10118413;28;20032;-68
2021/12/28 16:38:50;;;;;;;1.05;0.65;;;8.50;97.30;;;;;;10120515;28;20032;-71
2021/12/28 16:43:41;;;;;;;0.40;0.30;;;8.60;97.30;;;;;;10117918;28;20036;-68
2021/12/28 16:48:32;;;;;;;2.13;0.65;;;8.70;97.30;;;;;;10118528;28;20028;-69
2021/12/28 16:53:23;;;;;;;2.97;0.77;;;8.90;97.30;;;;;;10126546;28;20025;-70
2021/12/28 16:58:15;;;;;;;1.83;0.80;;;9.00;97.20;;;;;;10130332;28;20661;-69
2021/12/28 17:03:07;;;;;;;2.35;0.80;;;9.10;97.20;;;;;;10131254;28;20062;-69
2021/12/28 17:07:58;;;;;;;1.50;0.80;;;9.20;97.10;;;;;;10109688;28;20040;-69
2021/12/28 17:12:49;;;;;;;1.60;0.85;;;9.20;97.20;;;;;;10132016;28;20040;-70
2021/12/28 17:17:40;;;;;;;2.30;0.77;;;9.20;97.20;;;;;;10146851;28;20047;-69
2021/12/28 17:22:31;;;;;;;3.08;0.80;;;9.20;97.20;;;;;;10172863;28;20403;-71
2021/12/28 17:27:22;;;;;;;3.10;1.05;;;9.30;97.10;;;;;;10172306;28;20500;-68
2021/12/28 17:32:12;;;;;;;7.40;1.48;;;9.40;97.00;;;;;;10168519;28;20024;-71
2021/12/28 17:37:03;;;;;;;10.13;2.70;;;9.50;97.00;;;;;;10167937;28;20039;-69
2021/12/28 17:41:54;;;;;;;9.93;1.63;;;9.70;96.90;;;;;;10165540;28;20167;-69
2021/12/28 17:46:46;;;;;;;8.27;1.15;;;9.80;96.90;;;;;;10170527;28;20088;-69
2021/12/28 17:51:41;;;;;;;4.85;1.40;;;9.80;97.00;;;;;;10166095;28;20525;-71
2021/12/28 17:56:32;;;;;;;5.80;1.33;;;9.90;97.10;;;;;;10169452;28;20081;-70
2021/12/28 18:01:32;;;;;;;5.45;1.40;;;9.90;97.20;;;;;;10163778;28;20036;-70
2021/12/28 18:06:24;;;;;;;4.30;0.90;;;10.00;97.20;;;;;;10163009;28;20413;-70
2021/12/28 18:11:15;;;;;;;2.95;1.33;;;10.00;97.30;;;;;;10162778;28;20354;-69
2021/12/28 18:16:06;;;;;;;5.97;1.40;;;10.10;97.30;;;;;;10153192;28;20086;-71
2021/12/28 18:20:57;;;;;;;3.50;1.42;;;10.10;97.30;;;;;;10104536;28;20036;-68
2021/12/28 18:25:49;;;;;;;2.85;1.70;;;10.10;97.40;;;;;;10123668;28;20043;-69
2021/12/28 18:30:41;;;;;;;7.97;2.42;;;10.00;97.40;;;;;;10122640;28;20123;-69
2021/12/28 18:35:35;;;;;;;5.07;1.80;;;10.10;97.50;;;;;;10108729;28;20589;-70
2021/12/28 18:40:26;;;;;;;6.20;1.45;;;10.00;97.50;;;;;;10099826;28;20037;-71
2021/12/28 18:45:20;;;;;;;4.20;1.70;;;10.00;97.50;;;;;;10124822;28;20035;-70
2021/12/28 18:50:12;;;;;;;4.78;2.28;;;10.00;97.50;;;;;;10103331;28;20086;-71
2021/12/28 18:55:08;;;;;;;3.13;0.93;;;10.00;97.50;;;;;;10126032;28;20063;-70
2021/12/28 18:59:59;;;;;;;3.30;1.77;;;9.90;97.50;;;;;;10107698;28;20610;-70
2021/12/28 19:04:50;;;;;;;1.95;0.90;;;9.90;97.50;;;;;;10123467;28;20459;-70
2021/12/28 19:09:40;;;;;;;3.47;1.48;;;9.80;97.40;;;;;;10111897;28;20021;-69
2021/12/28 19:14:32;;;;;;;25.27;10.35;;;9.90;97.40;;;;;;10107123;28;20426;-69
2021/12/28 19:19:24;;;;;;;3.58;2.00;;;9.90;97.30;;;;;;10106689;28;20036;-71
2021/12/28 19:24:15;;;;;;;5.20;1.48;;;10.00;97.40;;;;;;10102465;28;20039;-73
2021/12/28 19:29:06;;;;;;;4.07;1.90;;;10.00;97.40;;;;;;10122643;28;20036;-68
2021/12/28 19:33:56;;;;;;;2.65;1.80;;;10.10;97.30;;;;;;10123964;28;20417;-71
2021/12/28 19:38:48;;;;;;;4.07;1.60;;;10.10;97.30;;;;;;10113543;28;20091;-73
2021/12/28 19:43:39;;;;;;;4.75;1.75;;;10.10;97.20;;;;;;10120690;28;20101;-72
2021/12/28 19:48:32;;;;;;;3.55;1.60;;;10.20;97.30;;;;;;10111838;28;20025;-67
2021/12/28 19:53:23;;;;;;;4.68;2.10;;;10.20;97.30;;;;;;10095360;28;20020;-69
2021/12/28 19:58:13;;;;;;;9.20;3.25;;;10.30;97.30;;;;;;10119675;28;20077;-69
2021/12/28 20:03:07;;;;;;;6.32;1.98;;;10.50;97.00;;;;;;10120362;28;20568;-68
2021/12/28 20:07:59;;;;;;;7.15;2.30;;;10.70;96.50;;;;;;10115274;28;20095;-69
2021/12/28 20:12:51;;;;;;;12.43;2.35;;;10.70;96.60;;;;;;10099252;28;20040;-68
2021/12/28 20:17:42;;;;;;;7.35;2.45;;;10.70;96.50;;;;;;10136603;28;20406;-68
2021/12/28 20:22:33;;;;;;;12.45;4.45;;;10.90;96.30;;;;;;10148432;28;20040;-68
2021/12/28 20:27:25;;;;;;;6.13;2.17;;;11.00;96.10;;;;;;10152046;28;20028;-70
2021/12/28 20:32:16;;;;;;;6.30;2.40;;;11.00;95.70;;;;;;10163799;28;20028;-69
2021/12/28 20:37:10;;;;;;;7.80;1.90;;;11.00;95.60;;;;;;10168848;28;20464;-69
2021/12/28 20:42:01;;;;;;;5.93;2.38;;;11.00;95.30;;;;;;10169515;28;20036;-70
2021/12/28 20:46:53;;;;;;;10.27;2.47;;;11.10;95.30;;;;;;10170204;28;20395;-67
2021/12/28 20:51:44;;;;;;;9.65;2.60;;;11.10;95.10;;;;;;10169272;28;20020;-71
2021/12/28 20:56:36;;;;;;;7.93;1.95;;;11.20;94.70;;;;;;10166515;28;20028;-70
2021/12/28 21:01:27;;;;;;;5.97;1.88;;;11.30;94.60;;;;;;10160777;28;20525;-69
2021/12/28 21:06:17;;;;;;;7.68;1.98;;;11.30;94.30;;;;;;10165484;28;20036;-70
2021/12/28 21:11:08;;;;;;;5.18;2.85;;;11.30;94.10;;;;;;10172112;28;20089;-72
2021/12/28 21:15:59;;;;;;;8.65;2.45;;;11.30;94.20;;;;;;10159232;28;20067;-70
2021/12/28 21:20:52;;;;;;;10.63;2.13;;;11.20;93.90;;;;;;10130773;28;20037;-72
2021/12/28 21:25:43;;;;;;;8.43;2.15;;;11.20;93.90;;;;;;10113417;28;20016;-71
2021/12/28 21:30:34;;;;;;;7.93;2.22;;;11.20;93.60;;;;;;10133381;28;20230;-71
2021/12/28 21:35:26;;;;;;;9.18;1.88;;;11.10;93.70;;;;;;10128142;28;20090;-74
2021/12/28 21:40:22;;;;;;;7.90;1.92;;;11.20;93.50;;;;;;10130365;28;20036;-74
2021/12/28 21:45:15;;;;;;;;;;;11.20;93.30;;;;;;10134846;28;20104;-73
2021/12/28 21:50:07;;;;;;;9.43;2.03;;;11.20;93.10;;;;;;10129250;28;19913;-75
2021/12/28 21:55:00;;;;;;;6.30;3.22;;;11.20;93.10;;;;;;10129641;28;20025;-77
2021/12/28 21:59:51;;;;;;;5.88;1.80;;;11.30;93.10;;;;;;10128682;28;20067;-71
2021/12/28 22:04:42;;;;;;;9.18;2.08;;;11.30;93.00;;;;;;10108930;28;20047;-74
2021/12/28 22:09:40;;;;;;;8.57;1.80;;;11.30;93.10;;;;;;10118870;28;20024;-65
2021/12/28 22:14:31;;;;;;;10.02;3.25;;;11.30;93.00;;;;;;10118170;28;20025;-69
2021/12/28 22:19:21;;;;;;;34.65;13.75;;;11.30;92.70;;;;;;10126043;28;20118;-70
2021/12/28 22:24:12;;;;;;;9.27;4.18;;;11.30;92.80;;;;;;10116697;28;20143;-68
2021/12/28 22:29:03;;;;;;;6.43;1.95;;;11.30;92.80;;;;;;10119177;28;20033;-67
2021/12/28 22:33:54;;;;;;;6.35;1.60;;;11.30;92.80;;;;;;10113614;28;20043;-65
2021/12/28 22:38:44;;;;;;;5.60;1.70;;;11.20;92.60;;;;;;10119541;28;20149;-68
2021/12/28 22:43:35;;;;;;;8.23;1.52;;;11.20;92.60;;;;;;10115279;28;20235;-67
2021/12/28 22:48:26;;;;;;;6.43;1.88;;;11.20;92.60;;;;;;10110203;28;20239;-65
2021/12/28 22:53:17;;;;;;;6.97;2.22;;;11.20;92.50;;;;;;10115428;28;20032;-66
2021/12/28 22:58:08;;;;;;;5.60;1.63;;;11.20;92.60;;;;;;10106114;28;20068;-69
2021/12/28 23:03:03;;;;;;;8.13;2.33;;;11.20;92.60;;;;;;10108351;28;20437;-65
2021/12/28 23:07:54;;;;;;;6.25;1.58;;;11.10;92.50;;;;;;10125015;28;20525;-68
2021/12/28 23:12:45;;;;;;;8.48;2.67;;;11.10;92.60;;;;;;10110986;28;20028;-66
2021/12/28 23:17:36;;;;;;;2.13;1.50;;;11.10;92.60;;;;;;10117095;28;20135;-64
2021/12/28 23:22:27;;;;;;;5.75;1.52;;;11.10;92.60;;;;;;10123858;28;20032;-64
2021/12/28 23:27:18;;;;;;;1.70;0.98;;;11.10;92.70;;;;;;10122967;28;20044;-66
2021/12/28 23:32:10;;;;;;;2.55;1.30;;;11.10;92.70;;;;;;10113939;28;20027;-66
2021/12/28 23:37:01;;;;;;;0.70;0.40;;;11.10;92.60;;;;;;10102111;28;20452;-68
2021/12/28 23:41:52;;;;;;;1.20;0.63;;;11.10;92.60;;;;;;10104019;28;20032;-68
2021/12/28 23:46:42;;;;;;;1.65;0.80;;;11.10;92.60;;;;;;10120393;28;20033;-70
2021/12/28 23:51:33;;;;;;;5.47;1.58;;;11.00;92.70;;;;;;10100095;28;20033;-67
2021/12/28 23:56:26;;;;;;;1.90;0.75;;;11.00;92.80;;;;;;10119683;28;20593;-65
